North Harpersfield, New York
Current Conditions -  °F | °C
As of 3:55 AM on Thursday 23 Oct 2014 (Local Time) from KNY0 Reporting Station
Overcast Overcast  
Wind Chill: 44°   Ceiling: 2500
Heat Index: 47°   Visibility: 7mi
Dew Point: 43°   Wind: 5mph
Humidity: 88%   Direction: 30°NNE
Pressure: 29.91"   Gusts: NA
Location:  42.5008°N, 74.6014°W
Report Text: KNY0 230755Z AUTO 03004KT 7SM OVC025 08/06 A2991 RMK AO2 P0002 T00810063
Loading
Personal Weather Stations






























Interactive Weather Map
Tropical Storm Tracking
New forecast layout! Learn more

10-Day Weather Forecast

Advertisements
Track Severe Weather on mobile